createdAt,value
2019-03-31T00:00:41.351Z,10.23
2019-03-31T00:04:49.917Z,10.47
2019-03-31T00:08:58.231Z,10.37
2019-03-31T00:13:07.501Z,11.73
2019-03-31T00:17:16.011Z,12.97
2019-03-31T00:21:24.525Z,11.87
2019-03-31T00:25:33.031Z,12.03
2019-03-31T00:29:41.588Z,11.30
2019-03-31T00:33:49.921Z,11.53
2019-03-31T00:37:58.617Z,11.37
2019-03-31T00:42:07.480Z,11.23
2019-03-31T00:46:16.181Z,11.00
2019-03-31T00:50:24.944Z,11.27
2019-03-31T00:54:33.353Z,11.03
2019-03-31T00:58:41.788Z,11.43
2019-03-31T01:02:51.097Z,13.90
2019-03-31T01:06:59.639Z,13.50
2019-03-31T01:11:19.801Z,15.23
2019-03-31T01:15:28.532Z,15.77
2019-03-31T01:19:36.897Z,15.50
2019-03-31T01:23:46.118Z,24.23
2019-03-31T01:27:55.080Z,13.60
2019-03-31T01:32:03.486Z,11.83
2019-03-31T01:36:12.404Z,10.67
2019-03-31T01:40:21.784Z,12.07
2019-03-31T01:44:30.097Z,11.70
2019-03-31T01:48:38.966Z,11.40
2019-03-31T01:52:47.783Z,11.83
2019-03-31T01:56:56.293Z,13.43
2019-03-31T02:01:06.111Z,14.00
2019-03-31T02:05:14.584Z,15.20
2019-03-31T02:09:22.916Z,14.27
2019-03-31T02:13:31.317Z,14.23
2019-03-31T02:17:39.877Z,14.80
2019-03-31T02:21:48.703Z,14.73
2019-03-31T02:25:57.545Z,13.50
2019-03-31T02:30:06.063Z,13.07
2019-03-31T02:34:14.583Z,13.00
2019-03-31T02:38:23.420Z,14.60
2019-03-31T02:42:32.072Z,14.73
2019-03-31T02:46:40.594Z,14.67
2019-03-31T02:50:50.705Z,15.17
2019-03-31T02:55:00.063Z,14.80
2019-03-31T02:59:09.159Z,15.47
2019-03-31T03:03:18.718Z,15.00
2019-03-31T03:07:29.443Z,16.13
2019-03-31T03:11:38.813Z,17.30
2019-03-31T03:16:16.005Z,17.77
2019-03-31T03:20:25.769Z,18.23
2019-03-31T03:24:35.626Z,36.93
2019-03-31T03:28:45.144Z,26.83
2019-03-31T03:33:13.233Z,20.13
2019-03-31T03:37:04.941Z,18.83
2019-03-31T03:41:13.233Z,16.23
2019-03-31T03:45:22.380Z,16.50
2019-03-31T03:49:31.571Z,15.27
2019-03-31T03:53:39.923Z,16.03
2019-03-31T03:57:48.831Z,16.43
2019-03-31T04:01:57.607Z,15.53
2019-03-31T04:06:05.902Z,17.63
2019-03-31T04:10:50.769Z,18.07
2019-03-31T04:14:59.654Z,16.03
2019-03-31T04:19:07.715Z,16.97
2019-03-31T04:23:16.585Z,16.10
2019-03-31T04:27:25.417Z,17.70
2019-03-31T04:31:33.744Z,18.83
2019-03-31T04:35:42.235Z,21.60
2019-03-31T04:39:50.585Z,21.30
2019-03-31T04:43:58.989Z,21.93
2019-03-31T04:48:07.826Z,20.33
2019-03-31T04:52:16.676Z,17.30
2019-03-31T04:56:25.090Z,16.50
2019-03-31T05:00:33.799Z,21.47
2019-03-31T05:04:42.224Z,24.73
2019-03-31T05:08:50.570Z,21.40
2019-03-31T05:12:59.306Z,21.27
2019-03-31T05:17:07.728Z,15.97
2019-03-31T05:21:17.370Z,15.83
2019-03-31T05:25:26.114Z,14.47
2019-03-31T05:29:35.868Z,18.37
2019-03-31T05:33:44.299Z,21.57
2019-03-31T05:37:52.923Z,24.80
2019-03-31T05:42:01.443Z,23.70
2019-03-31T05:46:10.301Z,25.37
2019-03-31T05:50:19.172Z,23.33
2019-03-31T05:54:27.670Z,23.70
2019-03-31T05:58:36.079Z,22.60
2019-03-31T06:02:44.386Z,25.80
2019-03-31T06:06:52.622Z,22.73
2019-03-31T06:11:01.135Z,22.73
2019-03-31T06:15:09.695Z,21.30
2019-03-31T06:19:18.909Z,21.30
2019-03-31T06:23:27.221Z,24.03
2019-03-31T06:27:35.764Z,19.73
2019-03-31T06:31:44.276Z,22.00
2019-03-31T06:35:52.927Z,21.60
2019-03-31T06:40:01.323Z,20.70
2019-03-31T06:44:10.781Z,19.77
2019-03-31T06:48:19.628Z,19.73
2019-03-31T06:52:27.837Z,20.00
2019-03-31T06:56:36.369Z,21.07
2019-03-31T07:00:44.693Z,18.37
2019-03-31T07:05:00.909Z,16.80
2019-03-31T07:09:04.788Z,17.33
2019-03-31T07:13:13.237Z,17.87
2019-03-31T07:17:22.085Z,15.03
2019-03-31T07:21:30.894Z,9.17
2019-03-31T07:25:39.303Z,8.63
2019-03-31T07:29:47.932Z,9.37
2019-03-31T07:33:56.890Z,8.53
2019-03-31T07:38:05.202Z,8.50
2019-03-31T07:42:14.171Z,8.60
2019-03-31T07:46:22.767Z,16.80
2019-03-31T07:50:32.126Z,18.00
2019-03-31T07:54:40.460Z,14.70
2019-03-31T07:58:48.739Z,14.97
2019-03-31T08:03:00.319Z,16.60
2019-03-31T08:07:07.954Z,13.83
2019-03-31T08:11:17.297Z,14.83
2019-03-31T08:15:25.735Z,14.27
2019-03-31T08:19:37.128Z,17.60
2019-03-31T08:23:45.401Z,14.63
2019-03-31T08:27:54.080Z,14.07
2019-03-31T08:32:03.660Z,14.20
2019-03-31T08:36:12.874Z,16.17
2019-03-31T08:40:21.520Z,14.00
2019-03-31T08:44:30.135Z,14.10
2019-03-31T08:48:38.359Z,14.67
2019-03-31T08:52:47.406Z,14.93
2019-03-31T08:56:55.726Z,13.83
2019-03-31T09:01:09.741Z,13.93
2019-03-31T09:05:18.611Z,12.83
2019-03-31T09:09:26.956Z,12.93
2019-03-31T09:13:35.955Z,10.87
2019-03-31T09:17:45.325Z,11.87
2019-03-31T09:21:53.646Z,11.20
2019-03-31T09:26:02.484Z,11.53
2019-03-31T09:30:12.259Z,13.83
2019-03-31T09:34:20.554Z,11.57
2019-03-31T09:38:28.872Z,10.80
2019-03-31T09:42:37.104Z,11.47
2019-03-31T09:46:46.011Z,11.20
2019-03-31T09:50:56.697Z,10.80
2019-03-31T09:55:05.327Z,11.93
2019-03-31T09:59:13.762Z,10.37
2019-03-31T10:03:23.019Z,10.50
2019-03-31T10:07:32.248Z,11.40
2019-03-31T10:11:40.775Z,10.53
2019-03-31T10:15:49.100Z,11.70
2019-03-31T10:19:57.740Z,11.23
2019-03-31T10:24:06.564Z,10.73
2019-03-31T10:28:14.790Z,11.60
2019-03-31T10:32:23.727Z,10.30
2019-03-31T10:36:43.746Z,10.60
2019-03-31T10:40:42.359Z,10.07
2019-03-31T10:44:51.074Z,10.50
2019-03-31T10:48:59.260Z,9.60
2019-03-31T10:53:07.641Z,10.70
2019-03-31T10:57:16.234Z,10.77
2019-03-31T11:01:24.528Z,9.90
2019-03-31T11:05:32.765Z,10.33
2019-03-31T11:09:41.172Z,9.83
2019-03-31T11:13:49.567Z,11.43
2019-03-31T11:17:58.348Z,9.47
2019-03-31T11:22:21.686Z,10.07
2019-03-31T11:26:29.953Z,10.93
2019-03-31T11:30:38.689Z,10.23
2019-03-31T11:34:47.931Z,10.13
2019-03-31T11:38:56.259Z,9.20
2019-03-31T11:43:05.061Z,9.20
2019-03-31T11:47:13.208Z,9.30
2019-03-31T11:51:21.520Z,9.33
2019-03-31T11:55:30.031Z,10.23
2019-03-31T11:59:38.352Z,9.10
2019-03-31T12:03:47.146Z,9.53
2019-03-31T12:07:56.542Z,10.67
2019-03-31T12:12:04.898Z,8.77
2019-03-31T12:16:13.394Z,8.93
2019-03-31T12:20:23.357Z,10.67
2019-03-31T12:24:31.959Z,9.23
2019-03-31T12:28:40.511Z,7.83
2019-03-31T12:32:48.938Z,7.77
2019-03-31T12:36:57.758Z,7.87
2019-03-31T12:41:05.989Z,8.07
2019-03-31T12:45:15.125Z,7.33
2019-03-31T12:49:23.650Z,8.10
2019-03-31T12:53:31.868Z,7.03
2019-03-31T12:57:40.613Z,7.13
2019-03-31T13:01:49.408Z,6.60
2019-03-31T13:05:57.679Z,8.00
2019-03-31T13:10:06.104Z,6.50
2019-03-31T13:14:14.838Z,5.40
2019-03-31T13:18:27.691Z,5.93
2019-03-31T13:22:34.127Z,6.07
2019-03-31T13:26:42.459Z,6.83
2019-03-31T13:30:50.662Z,6.50
2019-03-31T13:34:59.637Z,6.27
2019-03-31T13:39:09.145Z,6.57
2019-03-31T13:43:17.996Z,9.57
2019-03-31T13:47:27.430Z,8.60
2019-03-31T13:51:35.657Z,11.67
2019-03-31T13:55:44.806Z,10.13
2019-03-31T13:59:54.089Z,8.57
2019-03-31T14:04:03.563Z,9.00
2019-03-31T14:08:24.972Z,8.80
2019-03-31T14:12:22.790Z,9.63
2019-03-31T14:16:31.193Z,9.37
2019-03-31T14:20:40.376Z,18.90
2019-03-31T14:24:48.919Z,7.27
2019-03-31T14:28:57.143Z,6.50
2019-03-31T14:33:05.954Z,11.97
2019-03-31T14:37:14.152Z,6.73
2019-03-31T14:41:23.285Z,7.57
2019-03-31T14:45:38.305Z,7.67
2019-03-31T14:49:46.600Z,8.53
2019-03-31T14:53:55.630Z,7.07
2019-03-31T14:58:07.698Z,11.30
2019-03-31T15:02:14.530Z,8.80
2019-03-31T15:06:23.272Z,9.10
2019-03-31T15:10:32.123Z,10.13
2019-03-31T15:14:40.426Z,8.03
2019-03-31T15:18:49.355Z,9.50
2019-03-31T15:22:57.999Z,8.57
2019-03-31T15:27:06.317Z,11.03
2019-03-31T15:31:15.085Z,17.80
2019-03-31T15:35:23.267Z,10.47
2019-03-31T15:39:31.807Z,8.50
2019-03-31T15:43:40.260Z,9.37
2019-03-31T15:47:48.505Z,11.57
2019-03-31T15:51:57.482Z,16.30
2019-03-31T15:56:06.203Z,13.47
2019-03-31T16:00:15.130Z,20.23
2019-03-31T16:04:23.537Z,13.77
2019-03-31T16:08:31.566Z,11.27
2019-03-31T16:12:39.326Z,9.50
2019-03-31T16:16:47.686Z,11.87
2019-03-31T16:20:55.532Z,7.07
2019-03-31T16:25:05.463Z,7.90
2019-03-31T16:29:14.109Z,7.40
2019-03-31T16:33:21.815Z,9.70
2019-03-31T16:37:30.048Z,13.97
2019-03-31T16:41:38.882Z,13.60
2019-03-31T16:45:46.934Z,11.93
2019-03-31T16:49:55.183Z,13.70
2019-03-31T16:54:03.319Z,11.93
2019-03-31T16:58:10.889Z,12.20
2019-03-31T17:02:20.051Z,10.00
2019-03-31T17:06:28.200Z,9.77
2019-03-31T17:10:36.070Z,9.33
2019-03-31T17:14:44.773Z,14.67
2019-03-31T17:18:53.832Z,8.60
2019-03-31T17:23:02.513Z,8.03
2019-03-31T17:27:14.000Z,8.87
2019-03-31T17:31:20.613Z,10.40
2019-03-31T17:35:30.425Z,11.30
2019-03-31T17:39:38.640Z,10.80
2019-03-31T17:43:50.669Z,15.57
2019-03-31T17:48:00.693Z,9.63
2019-03-31T17:52:09.277Z,22.73
2019-03-31T17:56:17.053Z,19.53
2019-03-31T18:00:25.659Z,22.20
2019-03-31T18:04:33.292Z,21.67
2019-03-31T18:08:42.601Z,9.97
2019-03-31T18:12:50.959Z,9.57
2019-03-31T18:16:58.729Z,10.30
2019-03-31T18:21:09.872Z,11.60
2019-03-31T18:25:18.396Z,13.97
2019-03-31T18:29:27.101Z,13.77
2019-03-31T18:33:38.600Z,15.63
2019-03-31T18:37:46.539Z,12.67
2019-03-31T18:41:54.282Z,20.00
2019-03-31T18:46:02.465Z,14.53
2019-03-31T18:50:10.586Z,14.20
2019-03-31T18:54:52.086Z,13.33
2019-03-31T18:59:19.253Z,13.07
2019-03-31T19:03:47.446Z,18.67
2019-03-31T19:08:07.028Z,13.27
2019-03-31T19:12:34.764Z,10.90
2019-03-31T19:16:58.134Z,11.37
2019-03-31T19:21:35.581Z,11.07
2019-03-31T19:25:52.203Z,13.67
2019-03-31T19:30:22.131Z,12.07
2019-03-31T19:35:00.860Z,17.70
2019-03-31T19:39:26.988Z,14.13
2019-03-31T19:44:02.858Z,11.20
2019-03-31T19:48:29.473Z,11.70
2019-03-31T19:52:56.583Z,11.37
2019-03-31T19:57:29.119Z,11.47
2019-03-31T20:02:01.943Z,12.13
2019-03-31T20:06:34.120Z,10.83
2019-03-31T20:11:00.707Z,9.67
2019-03-31T20:15:33.951Z,9.23
2019-03-31T20:20:15.567Z,9.07
2019-03-31T20:24:42.384Z,9.97
2019-03-31T20:29:18.082Z,10.87
2019-03-31T20:33:47.959Z,12.57
2019-03-31T20:38:04.982Z,10.90
2019-03-31T20:42:23.457Z,10.03
2019-03-31T20:46:31.439Z,11.60
2019-03-31T20:50:39.035Z,13.33
2019-03-31T20:54:46.951Z,14.23
2019-03-31T20:58:54.688Z,13.27
2019-03-31T21:03:03.088Z,12.60
2019-03-31T21:07:11.308Z,9.93
2019-03-31T21:11:18.910Z,10.50
2019-03-31T21:15:27.224Z,12.57
2019-03-31T21:19:35.877Z,13.10
2019-03-31T21:23:43.566Z,12.67
2019-03-31T21:27:51.786Z,12.00
2019-03-31T21:31:59.705Z,11.67
2019-03-31T21:36:07.397Z,11.60
2019-03-31T21:40:15.542Z,11.27
2019-03-31T21:44:24.271Z,13.10
2019-03-31T21:48:31.875Z,12.17
2019-03-31T21:52:39.781Z,12.07
2019-03-31T21:56:47.580Z,10.87
2019-03-31T22:00:58.768Z,10.90
2019-03-31T22:05:08.134Z,11.53
2019-03-31T22:09:15.779Z,10.00
2019-03-31T22:13:23.825Z,11.07
2019-03-31T22:17:32.148Z,10.93
2019-03-31T22:21:39.791Z,11.37
2019-03-31T22:25:47.686Z,12.80
2019-03-31T22:29:55.615Z,12.80
2019-03-31T22:34:03.342Z,12.47
2019-03-31T22:38:11.929Z,12.53
2019-03-31T22:42:19.960Z,13.77
2019-03-31T22:46:27.852Z,14.07
2019-03-31T22:50:35.978Z,14.77
2019-03-31T22:54:43.799Z,13.13
2019-03-31T22:58:51.402Z,14.17
2019-03-31T23:02:59.706Z,13.23
2019-03-31T23:07:07.346Z,12.80
2019-03-31T23:11:15.260Z,12.87
2019-03-31T23:15:23.249Z,12.63
2019-03-31T23:19:31.056Z,12.27
2019-03-31T23:23:38.973Z,12.67
2019-03-31T23:27:46.893Z,12.43
2019-03-31T23:31:54.684Z,11.53
2019-03-31T23:36:02.916Z,10.60
2019-03-31T23:40:11.847Z,13.03
2019-03-31T23:44:19.540Z,12.23
2019-03-31T23:48:27.683Z,10.93
2019-03-31T23:52:36.390Z,10.87
2019-03-31T23:56:44.093Z,10.40
